Time;durP1;ratioP1;P1;durP2;ratioP2;P2;SDS_P1;SDS_P2;PMS_P1;PMS_P2;Temp;Humidity;BMP_temperature;BMP_pressure;BME280_temperature;BME280_humidity;BME280_pressure;Samples;Min_cycle;Max_cycle;Signal;HPM_P1;HPM_P2
2022/09/03 00:01:50;;;;;;;0.60;0.60;;;19.60;99.90;;;;;;5053729;28;20286;-62
2022/09/03 00:04:25;;;;;;;1.05;0.85;;;19.50;99.90;;;;;;5046272;28;20215;-61
2022/09/03 00:07:00;;;;;;;0.73;0.73;;;19.40;99.90;;;;;;5052985;28;20290;-62
2022/09/03 00:09:31;;;;;;;0.90;0.70;;;19.40;99.90;;;;;;5053434;28;20330;-61
2022/09/03 00:12:03;;;;;;;0.88;0.88;;;19.40;99.90;;;;;;5051384;28;20214;-62
2022/09/03 00:14:37;;;;;;;0.60;0.60;;;19.60;99.90;;;;;;5053617;28;20208;-61
2022/09/03 00:17:09;;;;;;;0.70;0.70;;;19.60;99.90;;;;;;5053999;28;20212;-61
2022/09/03 00:19:44;;;;;;;0.60;0.60;;;19.50;99.90;;;;;;5053248;28;20703;-62
2022/09/03 00:22:16;;;;;;;0.60;0.60;;;19.40;99.90;;;;;;5053415;28;20199;-62
2022/09/03 00:24:46;;;;;;;0.68;0.68;;;19.20;99.90;;;;;;5053480;28;20218;-61
2022/09/03 00:27:17;;;;;;;0.70;0.70;;;19.10;99.90;;;;;;5052888;28;20299;-61
2022/09/03 00:29:48;;;;;;;1.27;0.80;;;19.10;99.90;;;;;;5053875;28;20682;-61
2022/09/03 00:32:21;;;;;;;0.70;0.70;;;19.00;99.90;;;;;;5053470;28;20204;-61
2022/09/03 00:34:55;;;;;;;0.75;0.75;;;18.90;99.90;;;;;;5053087;28;20733;-61
2022/09/03 00:37:22;;;;;;;0.90;0.90;;;18.80;99.90;;;;;;5045674;28;20352;-61
2022/09/03 00:39:49;;;;;;;0.52;0.52;;;18.80;99.90;;;;;;5053028;28;20749;-61
2022/09/03 00:42:35;;;;;;;0.60;0.60;;;18.80;99.90;;;;;;5056432;22;20311;-62
2022/09/03 00:45:22;;;;;;;0.73;0.73;;;18.90;99.90;;;;;;5055270;28;20247;-62
2022/09/03 00:48:02;;;;;;;0.60;0.60;;;18.90;99.90;;;;;;5051612;28;20286;-62
2022/09/03 00:50:41;;;;;;;0.70;0.70;;;18.80;99.90;;;;;;5049850;28;20224;-62
2022/09/03 00:53:14;;;;;;;0.68;0.68;;;18.70;99.90;;;;;;5034917;28;20231;-62
2022/09/03 00:55:51;;;;;;;0.60;0.60;;;18.70;99.90;;;;;;5034619;28;20306;-62
2022/09/03 00:58:47;;;;;;;0.80;0.80;;;18.70;99.90;;;;;;5030356;28;20207;-62
2022/09/03 01:01:20;;;;;;;0.80;0.73;;;18.60;99.90;;;;;;5037873;28;20224;-62
2022/09/03 01:03:58;;;;;;;0.60;0.60;;;18.60;99.90;;;;;;5036918;28;20233;-61
2022/09/03 01:06:38;;;;;;;1.00;0.70;;;18.70;99.90;;;;;;5029049;28;20232;-61
2022/09/03 01:09:20;;;;;;;0.80;0.80;;;18.60;99.90;;;;;;5034416;28;20294;-62
2022/09/03 01:11:58;;;;;;;0.70;0.70;;;18.50;99.90;;;;;;5034709;28;20391;-61
2022/09/03 01:14:35;;;;;;;0.60;0.60;;;18.50;99.90;;;;;;5033722;28;20205;-62
2022/09/03 01:17:10;;;;;;;0.68;0.68;;;18.50;99.90;;;;;;5030981;28;20209;-61
2022/09/03 01:20:02;;;;;;;0.70;0.70;;;18.50;99.90;;;;;;5034451;28;20283;-62
2022/09/03 01:22:49;;;;;;;0.75;0.75;;;18.40;99.90;;;;;;5031943;28;20293;-62
2022/09/03 01:25:22;;;;;;;0.57;0.57;;;18.40;99.90;;;;;;5026712;28;20610;-62
2022/09/03 01:28:01;;;;;;;0.57;0.57;;;18.40;99.90;;;;;;5029126;28;20247;-62
2022/09/03 01:30:33;;;;;;;2.13;0.90;;;18.50;99.90;;;;;;5027473;28;20208;-62
2022/09/03 01:33:07;;;;;;;0.65;0.65;;;18.60;99.90;;;;;;5032705;28;20259;-62
2022/09/03 01:35:43;;;;;;;0.60;0.60;;;18.60;99.90;;;;;;5032440;28;20238;-62
2022/09/03 01:38:24;;;;;;;0.57;0.57;;;18.60;99.90;;;;;;5030427;28;20223;-62
2022/09/03 01:42:12;;;;;;;0.63;0.63;;;18.60;99.90;;;;;;5031599;28;20617;-62
2022/09/03 01:43:57;;;;;;;0.60;0.60;;;18.50;99.90;;;;;;5030463;28;20197;-62
2022/09/03 01:46:26;;;;;;;0.75;0.60;;;18.50;99.90;;;;;;5037339;28;20603;-62
2022/09/03 01:49:00;;;;;;;0.60;0.60;;;18.50;99.90;;;;;;5034595;28;20228;-62
2022/09/03 01:51:30;;;;;;;0.60;0.60;;;18.60;99.90;;;;;;5033550;28;20216;-62
2022/09/03 01:54:29;;;;;;;0.70;0.70;;;18.60;99.90;;;;;;5038788;28;20219;-62
2022/09/03 01:57:23;;;;;;;0.80;0.80;;;18.70;99.90;;;;;;5040461;28;20204;-62
2022/09/03 01:59:59;;;;;;;0.80;0.80;;;18.70;99.90;;;;;;5017732;28;20262;-62
2022/09/03 02:02:27;;;;;;;0.60;0.60;;;18.60;99.90;;;;;;5035113;28;20227;-62
2022/09/03 02:04:59;;;;;;;0.82;0.82;;;18.60;99.90;;;;;;5040266;28;20292;-62
2022/09/03 02:07:32;;;;;;;0.65;0.65;;;18.70;99.90;;;;;;5026984;28;20562;-62
2022/09/03 02:09:59;;;;;;;0.70;0.70;;;18.70;99.90;;;;;;5026685;28;20247;-61
2022/09/03 02:12:32;;;;;;;0.70;0.70;;;18.70;99.90;;;;;;5026826;28;20233;-61
2022/09/03 02:15:02;;;;;;;0.73;0.73;;;18.70;99.90;;;;;;5023732;28;20283;-61
2022/09/03 02:17:29;;;;;;;0.68;0.68;;;18.70;99.90;;;;;;5020269;28;20228;-62
2022/09/03 02:19:57;;;;;;;0.77;0.77;;;18.70;99.90;;;;;;5023533;28;20287;-62
2022/09/03 02:22:23;;;;;;;0.77;0.77;;;18.70;99.90;;;;;;5024316;28;20225;-62
2022/09/03 02:24:50;;;;;;;0.60;0.60;;;18.80;99.90;;;;;;5021513;28;20208;-61
2022/09/03 02:27:19;;;;;;;0.70;0.70;;;18.80;99.90;;;;;;5023688;28;20207;-63
2022/09/03 02:29:46;;;;;;;0.70;0.70;;;18.80;99.90;;;;;;5020141;28;20226;-62
2022/09/03 02:32:15;;;;;;;0.85;0.85;;;18.90;99.90;;;;;;5023462;28;20642;-62
2022/09/03 02:34:42;;;;;;;0.80;0.75;;;19.20;99.90;;;;;;5019995;28;20209;-62
2022/09/03 02:37:14;;;;;;;0.77;0.77;;;19.40;99.90;;;;;;5030503;28;20208;-62
2022/09/03 02:39:41;;;;;;;0.80;0.80;;;19.50;99.90;;;;;;5024580;28;20208;-61
2022/09/03 02:42:10;;;;;;;0.90;0.90;;;19.50;99.90;;;;;;5026891;28;20315;-62
2022/09/03 02:44:41;;;;;;;0.75;0.75;;;19.60;99.90;;;;;;5024648;28;20296;-62
2022/09/03 02:47:08;;;;;;;0.80;0.80;;;19.50;99.90;;;;;;5026525;28;20299;-62
2022/09/03 02:49:37;;;;;;;0.60;0.60;;;19.30;99.90;;;;;;5031463;28;20236;-62
2022/09/03 02:52:08;;;;;;;0.70;0.70;;;19.10;99.90;;;;;;5035338;28;20225;-63
2022/09/03 02:54:38;;;;;;;0.70;0.70;;;19.10;99.90;;;;;;5035876;28;20326;-62
2022/09/03 02:57:05;;;;;;;0.60;0.60;;;19.20;99.90;;;;;;5039357;28;20235;-61
2022/09/03 02:59:32;;;;;;;0.70;0.70;;;19.20;99.90;;;;;;5044946;28;20204;-63
2022/09/03 03:01:59;;;;;;;0.82;0.82;;;19.20;99.90;;;;;;5045849;28;20227;-62
2022/09/03 03:04:26;;;;;;;0.80;0.80;;;19.20;99.90;;;;;;5046902;28;20712;-61
2022/09/03 03:06:54;;;;;;;0.70;0.70;;;19.30;99.90;;;;;;5042135;28;20240;-62
2022/09/03 03:09:22;;;;;;;0.85;0.85;;;19.50;99.90;;;;;;5037087;28;20693;-62
2022/09/03 03:11:50;;;;;;;0.95;0.95;;;19.50;99.90;;;;;;5036001;28;20227;-62
2022/09/03 03:14:17;;;;;;;0.90;0.90;;;19.60;99.90;;;;;;5027234;28;20200;-62
2022/09/03 03:16:44;;;;;;;0.80;0.80;;;19.60;99.90;;;;;;5035172;28;20262;-61
2022/09/03 03:19:11;;;;;;;0.80;0.80;;;19.70;99.90;;;;;;5035346;28;20207;-62
2022/09/03 03:21:38;;;;;;;0.70;0.70;;;19.80;99.90;;;;;;5035691;28;20259;-62
2022/09/03 03:24:07;;;;;;;0.80;0.80;;;19.80;99.90;;;;;;5035897;28;20264;-62
2022/09/03 03:26:34;;;;;;;0.60;0.60;;;19.70;99.90;;;;;;5041318;28;20205;-61
2022/09/03 03:29:03;;;;;;;0.70;0.70;;;19.50;99.90;;;;;;5045292;28;20307;-62
2022/09/03 03:31:31;;;;;;;0.85;0.80;;;19.50;99.90;;;;;;5039622;28;20239;-61
2022/09/03 03:34:00;;;;;;;0.80;0.80;;;19.50;99.90;;;;;;5041504;28;20211;-62
2022/09/03 03:36:28;;;;;;;0.68;0.68;;;19.40;99.90;;;;;;5038487;28;20228;-62
2022/09/03 03:38:57;;;;;;;0.73;0.73;;;19.30;99.90;;;;;;5035115;28;20212;-61
2022/09/03 03:41:26;;;;;;;0.80;0.80;;;19.50;99.90;;;;;;5035176;28;20228;-62
2022/09/03 03:43:54;;;;;;;0.68;0.68;;;19.70;99.90;;;;;;5034429;28;20216;-62
2022/09/03 03:46:22;;;;;;;1.23;0.80;;;19.60;99.90;;;;;;5034107;28;20205;-62
2022/09/03 03:48:49;;;;;;;0.70;0.70;;;19.60;99.90;;;;;;5034330;28;20209;-62
2022/09/03 03:51:16;;;;;;;0.68;0.68;;;19.60;99.90;;;;;;5030425;28;20231;-63
2022/09/03 03:53:44;;;;;;;0.70;0.70;;;19.50;99.90;;;;;;5037347;28;20255;-61
2022/09/03 03:56:12;;;;;;;0.77;0.77;;;19.40;99.90;;;;;;5036503;28;20207;-62
2022/09/03 03:58:42;;;;;;;0.60;0.60;;;19.40;99.90;;;;;;5036380;28;20215;-61
2022/09/03 04:01:11;;;;;;;0.82;0.82;;;19.40;99.90;;;;;;5034603;28;20228;-61
2022/09/03 04:03:38;;;;;;;0.70;0.70;;;19.50;99.90;;;;;;5028813;28;20211;-62
2022/09/03 04:06:06;;;;;;;1.05;1.05;;;19.60;99.90;;;;;;5033860;28;20205;-62
2022/09/03 04:08:36;;;;;;;0.75;0.75;;;19.50;99.90;;;;;;5034296;28;20232;-61
2022/09/03 04:11:05;;;;;;;0.68;0.68;;;19.50;99.90;;;;;;5034565;28;20221;-61
2022/09/03 04:13:34;;;;;;;0.88;0.88;;;19.40;99.90;;;;;;5034040;28;20201;-62
2022/09/03 04:16:03;;;;;;;0.70;0.70;;;19.40;99.90;;;;;;5034087;28;20315;-62
2022/09/03 04:18:30;;;;;;;0.80;0.80;;;19.40;99.90;;;;;;5034065;28;20204;-62
2022/09/03 04:21:03;;;;;;;0.80;0.80;;;19.40;99.90;;;;;;5033571;28;20211;-62
2022/09/03 04:23:30;;;;;;;0.70;0.70;;;19.40;99.90;;;;;;5033450;28;20231;-62
2022/09/03 04:25:57;;;;;;;0.80;0.80;;;19.50;99.90;;;;;;5033439;28;20553;-61
2022/09/03 04:28:24;;;;;;;0.70;0.70;;;19.70;99.90;;;;;;5033676;28;20215;-62
2022/09/03 04:30:51;;;;;;;0.90;0.90;;;19.70;99.90;;;;;;5033006;28;20216;-61
2022/09/03 04:33:19;;;;;;;0.57;0.57;;;19.60;99.90;;;;;;5033519;28;20295;-62
2022/09/03 04:35:46;;;;;;;0.70;0.70;;;19.50;99.90;;;;;;5033616;28;20205;-62
2022/09/03 04:38:14;;;;;;;0.70;0.70;;;19.50;99.90;;;;;;5033176;28;20327;-62
2022/09/03 04:40:40;;;;;;;0.63;0.63;;;19.50;99.90;;;;;;5034732;28;20678;-62
2022/09/03 04:43:07;;;;;;;0.80;0.80;;;19.50;99.90;;;;;;5033318;28;20283;-62
2022/09/03 04:45:34;;;;;;;0.90;0.90;;;19.40;99.90;;;;;;5033247;28;20213;-62
2022/09/03 04:48:02;;;;;;;0.50;0.50;;;19.40;99.90;;;;;;5032725;28;20283;-62
2022/09/03 04:50:34;;;;;;;0.60;0.60;;;19.40;99.90;;;;;;5032535;28;20232;-61
2022/09/03 04:53:02;;;;;;;0.77;0.77;;;19.40;99.90;;;;;;5032496;28;20283;-61
2022/09/03 04:55:28;;;;;;;0.80;0.80;;;19.50;99.90;;;;;;5033157;28;20247;-62
2022/09/03 04:57:55;;;;;;;0.63;0.63;;;19.50;99.90;;;;;;5032314;28;20287;-61
2022/09/03 05:00:22;;;;;;;0.93;0.93;;;19.50;99.90;;;;;;5032812;28;20205;-62
2022/09/03 05:02:50;;;;;;;0.70;0.70;;;19.50;99.90;;;;;;5032183;28;20599;-61
2022/09/03 05:05:18;;;;;;;0.73;0.73;;;19.40;99.90;;;;;;5032225;28;20721;-61
2022/09/03 05:07:46;;;;;;;0.80;0.80;;;19.40;99.90;;;;;;5034813;28;20214;-62
2022/09/03 05:10:19;;;;;;;0.70;0.70;;;19.40;99.90;;;;;;5042565;28;20230;-61
2022/09/03 05:12:46;;;;;;;0.80;0.80;;;19.60;99.90;;;;;;5040608;28;20229;-61
2022/09/03 05:15:13;;;;;;;0.80;0.80;;;19.60;99.90;;;;;;5040254;28;20201;-62
2022/09/03 05:17:40;;;;;;;0.80;0.80;;;19.60;99.90;;;;;;5035017;28;20677;-62
2022/09/03 05:20:08;;;;;;;0.90;0.90;;;19.70;99.90;;;;;;5035142;28;20203;-62
2022/09/03 05:22:35;;;;;;;0.80;0.80;;;19.70;99.90;;;;;;5033976;28;20598;-61
2022/09/03 05:25:04;;;;;;;1.00;1.00;;;19.70;99.90;;;;;;5033145;28;20246;-63
2022/09/03 05:27:31;;;;;;;0.80;0.80;;;19.60;99.90;;;;;;5031831;28;20244;-61
2022/09/03 05:29:58;;;;;;;0.90;0.90;;;19.60;99.90;;;;;;5031940;28;20220;-62
2022/09/03 05:32:27;;;;;;;0.70;0.70;;;19.70;99.90;;;;;;5032057;28;20232;-63
2022/09/03 05:34:54;;;;;;;0.80;0.80;;;19.70;99.90;;;;;;5031812;28;20732;-62
2022/09/03 05:37:22;;;;;;;0.90;0.90;;;19.70;99.90;;;;;;5031889;28;20219;-62
2022/09/03 05:39:49;;;;;;;1.40;0.90;;;19.70;99.90;;;;;;5032414;28;20204;-62
2022/09/03 05:42:17;;;;;;;0.75;0.75;;;19.70;99.90;;;;;;5028064;28;20774;-62
2022/09/03 05:44:44;;;;;;;0.73;0.73;;;19.70;99.90;;;;;;5032254;28;20742;-62
2022/09/03 05:47:11;;;;;;;0.77;0.77;;;19.70;99.90;;;;;;5031789;28;20215;-62
2022/09/03 05:49:38;;;;;;;0.90;0.90;;;19.70;99.90;;;;;;5032193;28;20570;-62
2022/09/03 05:52:05;;;;;;;0.80;0.80;;;19.70;99.90;;;;;;5031963;28;20307;-62
2022/09/03 05:54:32;;;;;;;0.80;0.80;;;19.70;99.90;;;;;;5031627;28;20670;-62
2022/09/03 05:56:59;;;;;;;0.80;0.80;;;19.70;99.90;;;;;;5033883;28;20236;-62
2022/09/03 05:59:27;;;;;;;0.80;0.80;;;19.70;99.90;;;;;;5035005;28;20244;-62
2022/09/03 06:01:54;;;;;;;0.80;0.80;;;19.70;99.90;;;;;;5035585;28;20304;-62
2022/09/03 06:04:21;;;;;;;0.80;0.80;;;19.70;99.90;;;;;;5032649;28;20294;-62
2022/09/03 06:06:48;;;;;;;0.80;0.80;;;19.80;99.90;;;;;;5032184;28;20212;-62
2022/09/03 06:09:17;;;;;;;0.80;0.80;;;19.80;99.90;;;;;;5032894;28;20203;-62
2022/09/03 06:11:45;;;;;;;1.50;1.23;;;20.00;99.90;;;;;;5035973;28;20232;-62
2022/09/03 06:14:14;;;;;;;1.00;1.00;;;20.00;99.90;;;;;;5033273;28;20201;-62
2022/09/03 06:16:44;;;;;;;0.90;0.90;;;19.80;99.90;;;;;;5036648;28;20207;-61
2022/09/03 06:19:13;;;;;;;0.80;0.80;;;19.70;99.90;;;;;;5036422;28;20299;-63
2022/09/03 06:21:41;;;;;;;0.90;0.90;;;20.00;99.90;;;;;;5035522;28;20231;-62
2022/09/03 06:24:09;;;;;;;1.10;1.00;;;20.30;99.90;;;;;;5035555;28;20204;-63
2022/09/03 06:26:36;;;;;;;1.00;1.00;;;20.50;99.90;;;;;;5035426;28;20219;-62
2022/09/03 06:29:03;;;;;;;0.93;0.93;;;20.50;99.90;;;;;;5035843;28;20206;-62
2022/09/03 06:31:30;;;;;;;0.88;0.85;;;20.20;99.90;;;;;;5035673;28;20596;-63
2022/09/03 06:33:58;;;;;;;1.20;1.20;;;20.10;99.90;;;;;;5031364;28;20295;-62
2022/09/03 06:36:26;;;;;;;0.85;0.85;;;20.10;99.90;;;;;;5040769;28;20279;-63
2022/09/03 06:38:54;;;;;;;0.90;0.90;;;20.10;99.90;;;;;;5042542;28;20200;-61
2022/09/03 06:41:23;;;;;;;1.10;1.10;;;20.20;99.90;;;;;;5041578;28;20315;-62
2022/09/03 06:43:52;;;;;;;1.08;0.98;;;20.50;99.90;;;;;;5037569;28;20552;-62
2022/09/03 06:46:20;;;;;;;1.13;0.93;;;20.80;99.90;;;;;;5032436;28;20678;-61
2022/09/03 06:48:47;;;;;;;1.10;1.10;;;21.00;99.90;;;;;;5038790;28;20201;-63
2022/09/03 06:51:17;;;;;;;1.20;1.10;;;21.20;99.90;;;;;;5036697;28;20243;-62
2022/09/03 06:53:45;;;;;;;1.10;1.00;;;21.40;99.90;;;;;;5040201;28;20303;-62
2022/09/03 06:56:14;;;;;;;1.00;1.00;;;21.40;99.90;;;;;;5037023;28;20215;-63
2022/09/03 06:58:43;;;;;;;0.80;0.80;;;21.40;99.90;;;;;;5036483;28;20197;-63
2022/09/03 07:01:11;;;;;;;1.05;1.05;;;21.40;99.90;;;;;;5037687;28;20304;-62
2022/09/03 07:03:39;;;;;;;0.90;0.90;;;21.50;99.90;;;;;;5029876;28;20208;-62
2022/09/03 07:06:08;;;;;;;0.90;0.90;;;21.40;99.90;;;;;;5024665;28;20664;-62
2022/09/03 07:08:37;;;;;;;1.20;1.10;;;21.10;99.90;;;;;;5030435;28;20208;-62
2022/09/03 07:11:08;;;;;;;0.80;0.80;;;21.00;99.90;;;;;;5023640;28;20225;-62
2022/09/03 07:13:34;;;;;;;0.73;0.73;;;21.00;99.90;;;;;;5029023;28;20229;-62
2022/09/03 07:16:03;;;;;;;1.13;1.05;;;20.80;99.90;;;;;;5022826;28;20206;-62
2022/09/03 07:18:30;;;;;;;0.90;0.90;;;20.80;99.90;;;;;;5027798;28;20209;-62
2022/09/03 07:21:01;;;;;;;0.90;0.90;;;20.80;99.90;;;;;;5030688;28;20224;-61
2022/09/03 07:23:29;;;;;;;0.98;0.98;;;21.10;99.90;;;;;;5027091;28;20213;-62
2022/09/03 07:25:59;;;;;;;1.00;1.00;;;21.30;99.90;;;;;;5027574;28;20201;-62
2022/09/03 07:28:27;;;;;;;0.98;0.98;;;21.40;99.90;;;;;;5025444;28;20201;-63
2022/09/03 07:31:01;;;;;;;1.00;1.00;;;21.20;99.90;;;;;;5034515;28;20228;-62
2022/09/03 07:33:29;;;;;;;1.00;1.00;;;21.20;99.90;;;;;;5029817;28;20231;-62
2022/09/03 07:35:55;;;;;;;0.75;0.75;;;21.10;99.90;;;;;;5036179;28;20589;-61
2022/09/03 07:38:23;;;;;;;0.80;0.80;;;21.20;99.90;;;;;;5031246;28;20295;-62
2022/09/03 07:40:59;;;;;;;0.90;0.90;;;21.10;99.90;;;;;;5026496;28;20193;-62
2022/09/03 07:43:27;;;;;;;0.80;0.80;;;21.20;99.90;;;;;;5027561;28;20204;-63
2022/09/03 07:45:56;;;;;;;0.90;0.90;;;21.20;99.90;;;;;;5025537;28;20243;-62
2022/09/03 07:48:24;;;;;;;0.93;0.93;;;21.20;99.90;;;;;;5025662;28;20599;-61
2022/09/03 07:50:52;;;;;;;0.90;0.90;;;21.20;99.90;;;;;;5030880;28;20243;-61
2022/09/03 07:53:20;;;;;;;0.70;0.70;;;21.40;99.90;;;;;;5035347;28;20205;-62
2022/09/03 07:55:48;;;;;;;0.82;0.82;;;21.30;99.90;;;;;;5034763;28;20201;-62
2022/09/03 07:58:16;;;;;;;0.70;0.70;;;21.20;99.90;;;;;;5034805;28;20255;-63
2022/09/03 08:00:43;;;;;;;1.10;1.00;;;21.20;99.90;;;;;;5038367;28;20228;-62
2022/09/03 08:03:10;;;;;;;0.77;0.77;;;21.30;99.90;;;;;;5035070;28;20316;-62
2022/09/03 08:05:37;;;;;;;0.95;0.95;;;21.40;99.90;;;;;;5043315;28;20646;-62
2022/09/03 08:08:04;;;;;;;0.80;0.80;;;21.40;99.90;;;;;;5040873;28;20296;-62
2022/09/03 08:10:31;;;;;;;1.40;1.30;;;21.20;99.90;;;;;;5036409;28;20205;-62
2022/09/03 08:12:58;;;;;;;1.00;1.00;;;21.00;99.90;;;;;;5037380;28;20229;-62
2022/09/03 08:15:27;;;;;;;0.75;0.75;;;20.80;99.90;;;;;;5036326;28;20278;-61
2022/09/03 08:17:53;;;;;;;0.90;0.90;;;20.60;99.90;;;;;;5037294;28;20212;-61
2022/09/03 08:20:21;;;;;;;0.85;0.85;;;20.50;99.90;;;;;;5037132;28;20283;-62
2022/09/03 08:22:49;;;;;;;0.90;0.90;;;20.60;99.90;;;;;;5035949;28;20224;-61
2022/09/03 08:25:17;;;;;;;0.80;0.80;;;20.70;99.90;;;;;;5035147;28;20204;-61
2022/09/03 08:27:43;;;;;;;1.00;1.00;;;20.80;99.90;;;;;;5034192;28;20197;-62
2022/09/03 08:30:11;;;;;;;0.88;0.88;;;20.90;99.90;;;;;;5033683;28;20216;-62
2022/09/03 08:32:39;;;;;;;1.38;1.10;;;21.00;99.90;;;;;;5034356;28;20228;-62
2022/09/03 08:35:08;;;;;;;1.10;1.05;;;21.00;99.90;;;;;;5035919;28;20225;-62
2022/09/03 08:37:35;;;;;;;0.90;0.90;;;21.10;99.90;;;;;;5038798;28;20712;-63
2022/09/03 08:40:04;;;;;;;0.90;0.90;;;21.20;99.90;;;;;;5039911;28;20239;-62
2022/09/03 08:42:45;;;;;;;0.82;0.82;;;21.20;99.90;;;;;;5039779;28;20230;-61
2022/09/03 08:45:16;;;;;;;0.80;0.80;;;21.30;99.90;;;;;;5039587;28;20687;-62
2022/09/03 08:47:48;;;;;;;0.90;0.90;;;21.60;99.90;;;;;;5036510;28;20251;-61
2022/09/03 08:50:23;;;;;;;0.80;0.80;;;21.70;99.90;;;;;;5038928;28;20197;-62
2022/09/03 08:52:53;;;;;;;1.00;0.90;;;21.80;99.90;;;;;;5036039;28;20232;-61
2022/09/03 08:55:25;;;;;;;0.90;0.90;;;21.80;99.90;;;;;;5024791;28;20639;-61
2022/09/03 08:57:58;;;;;;;1.05;1.00;;;22.00;99.90;;;;;;5034147;28;20663;-62
2022/09/03 09:00:29;;;;;;;0.88;0.88;;;22.40;99.90;;;;;;5029894;28;20654;-61
2022/09/03 09:03:23;;;;;;;0.73;0.73;;;22.60;99.90;;;;;;5032250;28;20225;-61
2022/09/03 09:05:55;;;;;;;0.90;0.90;;;22.80;99.90;;;;;;5031855;28;20200;-62
2022/09/03 09:08:33;;;;;;;0.80;0.80;;;23.00;99.90;;;;;;5031469;28;20307;-62
2022/09/03 09:11:07;;;;;;;0.88;0.88;;;22.80;99.90;;;;;;5028693;28;20201;-62
2022/09/03 09:13:42;;;;;;;0.90;0.90;;;23.10;99.90;;;;;;5028317;28;20690;-62
2022/09/03 09:16:15;;;;;;;0.77;0.77;;;23.10;99.90;;;;;;5031368;28;20287;-61
2022/09/03 09:19:01;;;;;;;0.85;0.85;;;22.90;99.90;;;;;;5025783;28;20251;-61
2022/09/03 09:21:33;;;;;;;0.90;0.90;;;23.20;99.90;;;;;;5027960;28;20246;-61
2022/09/03 09:24:04;;;;;;;0.70;0.70;;;23.20;99.90;;;;;;5033101;28;20211;-63
2022/09/03 09:26:33;;;;;;;0.82;0.82;;;23.00;99.90;;;;;;5035538;28;20201;-62
2022/09/03 09:29:05;;;;;;;0.80;0.80;;;23.10;99.90;;;;;;5039543;28;20200;-62
2022/09/03 09:31:32;;;;;;;0.90;0.90;;;23.30;99.90;;;;;;5036089;28;20226;-63
2022/09/03 09:34:05;;;;;;;0.80;0.80;;;23.70;99.90;;;;;;5031871;28;20296;-62
2022/09/03 09:36:38;;;;;;;1.00;1.00;;;24.00;99.90;;;;;;5030398;28;20197;-62
2022/09/03 09:39:09;;;;;;;0.90;0.90;;;24.10;99.90;;;;;;5033064;28;20232;-61
2022/09/03 09:41:36;;;;;;;1.40;1.40;;;24.30;99.90;;;;;;5035772;28;20231;-62
2022/09/03 09:44:05;;;;;;;1.10;1.10;;;24.40;99.90;;;;;;5032211;28;20329;-61
2022/09/03 09:46:35;;;;;;;1.17;1.17;;;24.30;99.90;;;;;;5030463;28;20208;-61
2022/09/03 09:49:08;;;;;;;1.60;1.50;;;24.40;99.90;;;;;;5029602;28;20263;-61
2022/09/03 09:51:35;;;;;;;1.40;1.40;;;24.10;99.90;;;;;;5030963;28;20347;-61
2022/09/03 09:54:04;;;;;;;1.80;1.70;;;23.70;99.90;;;;;;5035097;28;20287;-62
2022/09/03 09:56:31;;;;;;;0.95;0.95;;;23.60;99.90;;;;;;5029056;28;20204;-63
2022/09/03 09:59:05;;;;;;;1.10;1.10;;;23.60;99.90;;;;;;5032937;28;20624;-61
2022/09/03 10:01:33;;;;;;;0.88;0.88;;;23.60;99.90;;;;;;5037770;28;20294;-60
2022/09/03 10:04:08;;;;;;;0.90;0.90;;;23.50;99.90;;;;;;5045682;28;20235;-62
2022/09/03 10:06:55;;;;;;;0.90;0.90;;;23.60;99.90;;;;;;5039171;28;20200;-60
2022/09/03 10:09:24;;;;;;;1.30;0.88;;;23.60;99.90;;;;;;5027772;28;20208;-63
2022/09/03 10:12:02;;;;;;;0.80;0.80;;;23.60;99.90;;;;;;5036150;28;20220;-61
2022/09/03 10:14:36;;;;;;;0.80;0.80;;;23.60;99.90;;;;;;5034694;28;20382;-62
2022/09/03 10:17:10;;;;;;;0.90;0.90;;;23.50;99.90;;;;;;5032003;28;20205;-62
2022/09/03 10:20:25;;;;;;;0.93;0.93;;;23.40;99.90;;;;;;5026790;28;20199;-62
2022/09/03 10:22:45;;;;;;;0.80;0.80;;;23.30;99.90;;;;;;5033242;28;20223;-61
2022/09/03 10:25:15;;;;;;;1.48;1.00;;;23.30;99.90;;;;;;5038183;28;20200;-63
2022/09/03 10:27:43;;;;;;;0.82;0.82;;;23.20;99.90;;;;;;5025747;28;20209;-62
2022/09/03 10:30:12;;;;;;;1.00;0.90;;;23.00;99.90;;;;;;5026740;28;20202;-62
2022/09/03 10:32:45;;;;;;;0.68;0.68;;;22.80;99.90;;;;;;5035384;28;20255;-61
2022/09/03 10:35:23;;;;;;;0.70;0.70;;;22.90;99.90;;;;;;5039175;28;20211;-62
2022/09/03 10:38:02;;;;;;;0.90;0.90;;;23.10;99.90;;;;;;5038729;28;20636;-61
2022/09/03 10:40:36;;;;;;;5.22;1.30;;;23.20;99.90;;;;;;5041607;28;20685;-61
2022/09/03 10:43:31;;;;;;;1.00;1.00;;;23.30;99.90;;;;;;5039383;28;20311;-61
2022/09/03 10:46:04;;;;;;;2.05;1.17;;;23.30;99.90;;;;;;5034609;28;20204;-61
2022/09/03 10:49:01;;;;;;;1.58;1.10;;;23.30;99.90;;;;;;5028946;28;20285;-62
2022/09/03 10:51:34;;;;;;;0.90;0.90;;;23.20;99.90;;;;;;5014910;28;20688;-61
2022/09/03 10:54:31;;;;;;;0.90;0.80;;;23.20;99.90;;;;;;5030281;28;20713;-62
2022/09/03 10:57:08;;;;;;;1.00;1.00;;;23.10;99.90;;;;;;5032216;28;20307;-62
2022/09/03 10:59:52;;;;;;;0.85;0.85;;;23.10;99.90;;;;;;5034675;28;20566;-62
2022/09/03 11:02:39;;;;;;;2.30;2.20;;;22.90;99.90;;;;;;5038104;28;20274;-62
2022/09/03 11:05:12;;;;;;;1.00;1.00;;;22.90;99.90;;;;;;5034806;28;20303;-63
2022/09/03 11:07:45;;;;;;;1.25;1.25;;;22.90;99.90;;;;;;5025396;28;20208;-61
2022/09/03 11:10:20;;;;;;;1.20;1.20;;;23.00;99.90;;;;;;5025575;28;20206;-62
2022/09/03 11:12:50;;;;;;;1.00;1.00;;;23.10;99.90;;;;;;5026653;28;20416;-62
2022/09/03 11:15:26;;;;;;;1.50;1.40;;;23.20;99.90;;;;;;5029013;28;20215;-62
2022/09/03 11:17:58;;;;;;;1.30;0.95;;;23.30;99.90;;;;;;5029569;28;20583;-61
2022/09/03 11:20:26;;;;;;;0.90;0.90;;;23.10;99.90;;;;;;5032611;28;20205;-61
2022/09/03 11:22:56;;;;;;;0.90;0.90;;;23.20;99.90;;;;;;5032934;28;20234;-62
2022/09/03 11:25:30;;;;;;;1.05;0.93;;;23.30;99.90;;;;;;5030529;28;20211;-62
2022/09/03 11:28:10;;;;;;;1.10;1.10;;;23.30;99.90;;;;;;5036329;28;20618;-62
2022/09/03 11:30:49;;;;;;;0.80;0.80;;;23.30;99.90;;;;;;5033038;28;20562;-61
2022/09/03 11:33:22;;;;;;;0.80;0.80;;;23.10;99.90;;;;;;5031515;28;20224;-61
2022/09/03 11:35:59;;;;;;;0.70;0.70;;;22.80;99.90;;;;;;5032672;28;20235;-61
2022/09/03 11:38:29;;;;;;;0.60;0.60;;;22.70;99.90;;;;;;5030553;28;20222;-62
2022/09/03 11:41:10;;;;;;;0.63;0.63;;;22.50;99.90;;;;;;5033735;28;20197;-62
2022/09/03 11:43:38;;;;;;;0.50;0.50;;;22.40;99.90;;;;;;5027587;28;20227;-60
2022/09/03 11:46:11;;;;;;;0.40;0.40;;;22.40;99.90;;;;;;5031859;28;20204;-60
2022/09/03 11:48:42;;;;;;;0.43;0.43;;;22.50;99.90;;;;;;5033938;28;20204;-62
2022/09/03 11:51:21;;;;;;;0.30;0.30;;;22.50;99.90;;;;;;5032283;28;20287;-62
2022/09/03 11:53:56;;;;;;;0.50;0.50;;;22.60;99.90;;;;;;5027845;28;20627;-61
2022/09/03 11:56:24;;;;;;;0.65;0.65;;;22.70;99.90;;;;;;5034548;28;20447;-61
2022/09/03 11:59:15;;;;;;;0.50;0.50;;;22.60;99.90;;;;;;5033044;28;20200;-61
2022/09/03 12:01:47;;;;;;;0.32;0.32;;;22.60;99.90;;;;;;5028713;28;21680;-61
2022/09/03 12:04:16;;;;;;;0.30;0.30;;;22.50;99.90;;;;;;5030598;28;20206;-61
2022/09/03 12:06:57;;;;;;;0.40;0.40;;;22.30;99.90;;;;;;5033985;28;20288;-63
2022/09/03 12:09:51;;;;;;;0.60;0.60;;;22.30;99.90;;;;;;5032428;28;20208;-61
2022/09/03 12:12:40;;;;;;;0.30;0.30;;;22.40;99.90;;;;;;5031906;28;20240;-61
2022/09/03 12:15:17;;;;;;;1.00;0.60;;;22.60;99.90;;;;;;5030904;28;20204;-62
2022/09/03 12:18:17;;;;;;;0.43;0.43;;;22.70;99.90;;;;;;5028578;28;20204;-61
2022/09/03 12:20:40;;;;;;;0.30;0.30;;;23.00;99.90;;;;;;5029004;28;21221;-59
2022/09/03 12:23:07;;;;;;;0.40;0.40;;;23.20;99.90;;;;;;5038883;28;20228;-60
2022/09/03 12:25:34;;;;;;;0.50;0.50;;;23.40;99.90;;;;;;5032258;28;20290;-61
2022/09/03 12:28:12;;;;;;;0.55;0.55;;;23.50;99.90;;;;;;5027787;28;20228;-61
2022/09/03 12:30:39;;;;;;;1.50;0.60;;;23.50;99.90;;;;;;5029830;28;20254;-60
2022/09/03 12:33:09;;;;;;;0.85;0.50;;;23.50;99.90;;;;;;5028494;28;20608;-61
2022/09/03 12:35:36;;;;;;;0.47;0.47;;;23.50;99.90;;;;;;5039154;28;20196;-62
2022/09/03 12:38:03;;;;;;;0.40;0.40;;;23.80;99.90;;;;;;5033404;28;20377;-61
2022/09/03 12:40:31;;;;;;;0.63;0.40;;;23.90;99.90;;;;;;5027925;28;20237;-61
2022/09/03 12:43:13;;;;;;;0.40;0.40;;;24.20;99.90;;;;;;5035963;28;20225;-61
2022/09/03 12:45:44;;;;;;;0.30;0.30;;;24.20;99.90;;;;;;5036131;28;20548;-61
2022/09/03 12:48:15;;;;;;;0.30;0.30;;;24.10;99.90;;;;;;5041896;28;20257;-60
2022/09/03 12:50:43;;;;;;;0.50;0.50;;;24.40;99.90;;;;;;5034497;28;20272;-61
2022/09/03 12:53:12;;;;;;;0.50;0.50;;;24.60;99.90;;;;;;5025067;28;20234;-61
2022/09/03 12:55:43;;;;;;;0.55;0.55;;;24.80;99.90;;;;;;5025962;28;20201;-62
2022/09/03 12:58:17;;;;;;;0.40;0.40;;;25.00;99.90;;;;;;5014947;28;20201;-61
2022/09/03 13:00:48;;;;;;;0.30;0.30;;;25.00;99.90;;;;;;5020251;28;20310;-61
2022/09/03 13:03:20;;;;;;;0.70;0.70;;;24.90;99.90;;;;;;5025670;28;20252;-61
2022/09/03 13:05:52;;;;;;;0.55;0.45;;;24.90;99.90;;;;;;5026065;28;20232;-61
2022/09/03 13:08:23;;;;;;;0.35;0.35;;;24.80;99.90;;;;;;5026296;28;20208;-60
2022/09/03 13:10:53;;;;;;;0.85;0.60;;;24.70;99.90;;;;;;5026381;28;20207;-60